createdAt,value
2022-12-09T00:01:08.095Z,6.56
2022-12-09T00:03:36.882Z,6.53
2022-12-09T00:06:09.429Z,6.54
2022-12-09T00:08:37.744Z,6.52
2022-12-09T00:11:06.684Z,6.51
2022-12-09T00:13:36.070Z,6.51
2022-12-09T00:16:07.346Z,6.51
2022-12-09T00:18:35.368Z,6.51
2022-12-09T00:21:12.884Z,6.51
2022-12-09T00:23:40.847Z,6.52
2022-12-09T00:26:08.898Z,6.48
2022-12-09T00:28:38.157Z,6.50
2022-12-09T00:31:07.025Z,6.48
2022-12-09T00:33:36.133Z,6.48
2022-12-09T00:36:08.311Z,6.48
2022-12-09T00:38:36.264Z,6.48
2022-12-09T00:41:04.472Z,6.48
2022-12-09T00:43:32.241Z,6.46
2022-12-09T00:46:02.081Z,6.47
2022-12-09T00:48:30.959Z,6.47
2022-12-09T00:50:58.898Z,6.48
2022-12-09T00:53:26.907Z,6.46
2022-12-09T00:55:54.649Z,6.43
2022-12-09T00:58:22.392Z,6.45
2022-12-09T01:00:50.913Z,6.46
2022-12-09T01:03:20.907Z,6.45
2022-12-09T01:05:49.352Z,6.41
2022-12-09T01:08:17.547Z,6.43
2022-12-09T01:10:47.053Z,6.44
2022-12-09T01:13:16.519Z,6.43
2022-12-09T01:15:44.558Z,6.45
2022-12-09T01:18:13.544Z,6.45
2022-12-09T01:20:42.811Z,6.45
2022-12-09T01:23:10.534Z,6.43
2022-12-09T01:25:38.968Z,6.41
2022-12-09T01:28:06.766Z,6.41
2022-12-09T01:30:34.490Z,6.39
2022-12-09T01:33:02.228Z,6.40
2022-12-09T01:35:30.102Z,6.38
2022-12-09T01:37:59.309Z,6.40
2022-12-09T01:40:27.076Z,6.40
2022-12-09T01:42:54.831Z,6.39
2022-12-09T01:45:44.173Z,6.38
2022-12-09T01:48:14.685Z,6.37
2022-12-09T01:50:47.439Z,6.36
2022-12-09T01:53:19.599Z,6.36
2022-12-09T01:55:47.458Z,6.36
2022-12-09T01:58:16.667Z,6.33
2022-12-09T02:00:45.738Z,6.32
2022-12-09T02:03:13.849Z,6.32
2022-12-09T02:05:41.805Z,6.32
2022-12-09T02:08:13.121Z,6.33
2022-12-09T02:10:53.007Z,6.32
2022-12-09T02:13:26.873Z,6.32
2022-12-09T02:15:56.124Z,6.33
2022-12-09T02:18:30.869Z,6.32
2022-12-09T02:21:02.864Z,6.31
2022-12-09T02:23:38.741Z,6.30
2022-12-09T02:26:17.574Z,6.29
2022-12-09T02:29:05.039Z,6.30
2022-12-09T02:31:43.687Z,6.30
2022-12-09T02:34:15.994Z,6.30
2022-12-09T02:36:53.332Z,6.31
2022-12-09T02:39:25.019Z,6.29
2022-12-09T02:41:54.878Z,6.29
2022-12-09T02:44:25.235Z,6.30
2022-12-09T02:46:54.574Z,6.27
2022-12-09T02:49:26.208Z,6.28
2022-12-09T02:51:55.391Z,6.28
2022-12-09T02:54:24.718Z,6.29
2022-12-09T02:56:57.071Z,6.28
2022-12-09T02:59:25.123Z,6.27
2022-12-09T03:02:01.894Z,6.27
2022-12-09T03:04:33.024Z,6.28
2022-12-09T03:07:13.206Z,6.28
2022-12-09T03:09:46.456Z,6.28
2022-12-09T03:12:18.832Z,6.30
2022-12-09T03:14:50.785Z,6.28
2022-12-09T03:17:22.908Z,6.25
2022-12-09T03:19:56.155Z,6.22
2022-12-09T03:22:28.771Z,6.23
2022-12-09T03:25:00.725Z,6.20
2022-12-09T03:27:35.473Z,6.24
2022-12-09T03:30:07.556Z,6.24
2022-12-09T03:32:38.698Z,6.23
2022-12-09T03:35:14.465Z,6.25
2022-12-09T03:37:45.199Z,6.26
2022-12-09T03:40:17.979Z,6.24
2022-12-09T03:42:52.022Z,6.25
2022-12-09T03:45:23.630Z,6.22
2022-12-09T03:47:52.260Z,6.24
2022-12-09T03:50:23.363Z,6.26
2022-12-09T03:52:54.769Z,6.24
2022-12-09T03:55:34.935Z,6.25
2022-12-09T03:58:07.175Z,6.24
2022-12-09T04:00:37.605Z,6.24
2022-12-09T04:03:05.773Z,6.22
2022-12-09T04:05:35.927Z,6.24
2022-12-09T04:08:03.705Z,6.23
2022-12-09T04:10:31.397Z,6.21
2022-12-09T04:12:59.088Z,6.22
2022-12-09T04:15:26.925Z,6.19
2022-12-09T04:17:54.886Z,6.22
2022-12-09T04:20:22.719Z,6.23
2022-12-09T04:22:52.254Z,6.25
2022-12-09T04:25:19.929Z,6.24
2022-12-09T04:27:47.964Z,6.24
2022-12-09T04:30:15.950Z,6.23
2022-12-09T04:32:44.120Z,6.22
2022-12-09T04:35:12.028Z,6.22
2022-12-09T04:37:39.681Z,6.20
2022-12-09T04:40:10.284Z,6.19
2022-12-09T04:42:38.451Z,6.16
2022-12-09T04:45:07.724Z,6.15
2022-12-09T04:47:35.591Z,6.14
2022-12-09T04:50:05.079Z,6.14
2022-12-09T04:52:33.778Z,6.14
2022-12-09T04:55:01.460Z,6.15
2022-12-09T04:57:30.872Z,6.16
2022-12-09T04:59:58.628Z,6.17
2022-12-09T05:02:26.796Z,6.16
2022-12-09T05:04:54.935Z,6.16
2022-12-09T05:07:23.420Z,6.11
2022-12-09T05:09:51.731Z,6.15
2022-12-09T05:12:19.464Z,6.16
2022-12-09T05:14:48.507Z,6.17
2022-12-09T05:17:16.586Z,6.08
2022-12-09T05:19:44.814Z,6.17
2022-12-09T05:22:12.871Z,6.17
2022-12-09T05:24:41.144Z,6.17
2022-12-09T05:27:09.275Z,6.17
2022-12-09T05:29:37.017Z,6.15
2022-12-09T05:32:06.444Z,6.14
2022-12-09T05:34:34.577Z,6.13
2022-12-09T05:37:02.418Z,6.11
2022-12-09T05:39:30.403Z,6.10
2022-12-09T05:41:58.266Z,6.08
2022-12-09T05:44:26.250Z,6.08
2022-12-09T05:46:54.249Z,6.11
2022-12-09T05:49:23.773Z,6.10
2022-12-09T05:51:52.024Z,6.10
2022-12-09T05:54:20.206Z,6.13
2022-12-09T05:56:48.950Z,6.15
2022-12-09T05:59:16.985Z,6.14
2022-12-09T06:01:45.123Z,6.12
2022-12-09T06:04:13.116Z,6.19
2022-12-09T06:06:42.612Z,6.36
2022-12-09T06:09:12.174Z,6.50
2022-12-09T06:11:41.227Z,6.63
2022-12-09T06:14:10.162Z,6.80
2022-12-09T06:16:39.099Z,6.95
2022-12-09T06:19:07.654Z,7.15
2022-12-09T06:21:35.857Z,7.29
2022-12-09T06:24:06.292Z,7.36
2022-12-09T06:26:34.416Z,7.32
2022-12-09T06:29:02.510Z,7.14
2022-12-09T06:31:31.033Z,7.11
2022-12-09T06:33:59.979Z,7.01
2022-12-09T06:36:30.305Z,6.90
2022-12-09T06:39:04.544Z,6.83
2022-12-09T06:41:37.300Z,6.75
2022-12-09T06:44:05.513Z,6.68
2022-12-09T06:46:33.777Z,6.61
2022-12-09T06:49:01.786Z,6.56
2022-12-09T06:51:30.068Z,6.48
2022-12-09T06:53:58.105Z,6.48
2022-12-09T06:56:26.236Z,6.45
2022-12-09T06:58:55.459Z,6.43
2022-12-09T07:01:25.919Z,6.40
2022-12-09T07:03:57.147Z,6.39
2022-12-09T07:06:29.804Z,6.36
2022-12-09T07:08:59.958Z,6.33
2022-12-09T07:11:28.272Z,6.33
2022-12-09T07:13:57.757Z,6.30
2022-12-09T07:16:26.671Z,6.30
2022-12-09T07:18:54.775Z,6.20
2022-12-09T07:21:24.819Z,6.15
2022-12-09T07:23:53.977Z,6.19
2022-12-09T07:26:22.832Z,6.16
2022-12-09T07:28:51.314Z,6.20
2022-12-09T07:31:22.667Z,6.12
2022-12-09T07:33:51.688Z,6.09
2022-12-09T07:36:21.527Z,6.08
2022-12-09T07:38:50.327Z,6.07
2022-12-09T07:41:19.398Z,6.06
2022-12-09T07:43:48.192Z,6.07
2022-12-09T07:46:17.590Z,6.06
2022-12-09T07:48:48.124Z,6.08
2022-12-09T07:51:17.139Z,6.07
2022-12-09T07:53:45.314Z,6.06
2022-12-09T07:56:15.706Z,6.06
2022-12-09T07:58:45.251Z,6.07
2022-12-09T08:01:15.447Z,6.00
2022-12-09T08:03:43.695Z,6.06
2022-12-09T08:06:15.118Z,6.05
2022-12-09T08:08:44.012Z,6.07
2022-12-09T08:11:14.179Z,6.06
2022-12-09T08:13:43.149Z,5.97
2022-12-09T08:16:13.585Z,6.08
2022-12-09T08:18:43.106Z,6.08
2022-12-09T08:21:14.745Z,6.08
2022-12-09T08:23:42.722Z,6.08
2022-12-09T08:26:12.038Z,6.09
2022-12-09T08:28:40.356Z,6.08
2022-12-09T08:31:10.182Z,6.07
2022-12-09T08:33:38.991Z,6.06
2022-12-09T08:36:11.646Z,6.05
2022-12-09T08:38:41.367Z,6.06
2022-12-09T08:41:11.229Z,6.06
2022-12-09T08:43:39.526Z,6.08
2022-12-09T08:46:07.980Z,6.08
2022-12-09T08:48:37.843Z,6.03
2022-12-09T08:51:06.533Z,6.27
2022-12-09T08:53:34.452Z,6.42
2022-12-09T08:56:11.749Z,6.59
2022-12-09T08:58:40.311Z,6.82
2022-12-09T09:01:08.984Z,6.98
2022-12-09T09:03:37.397Z,7.13
2022-12-09T09:06:10.737Z,7.28
2022-12-09T09:08:39.570Z,7.45
2022-12-09T09:11:11.527Z,7.60
2022-12-09T09:13:40.357Z,7.69
2022-12-09T09:16:11.220Z,7.74
2022-12-09T09:18:39.497Z,7.92
2022-12-09T09:21:08.336Z,7.97
2022-12-09T09:23:36.704Z,8.01
2022-12-09T09:26:04.908Z,8.07
2022-12-09T09:28:34.927Z,7.95
2022-12-09T09:31:05.399Z,8.04
2022-12-09T09:33:33.435Z,7.97
2022-12-09T09:36:09.675Z,7.79
2022-12-09T09:38:38.715Z,7.62
2022-12-09T09:41:16.629Z,7.45
2022-12-09T09:43:46.464Z,7.28
2022-12-09T09:46:19.895Z,7.18
2022-12-09T09:48:48.860Z,7.27
2022-12-09T09:51:19.885Z,7.39
2022-12-09T09:53:53.281Z,7.57
2022-12-09T09:56:29.279Z,7.68
2022-12-09T09:59:11.344Z,7.84
2022-12-09T10:01:39.613Z,8.01
2022-12-09T10:04:15.605Z,8.01
2022-12-09T10:06:49.899Z,7.80
2022-12-09T10:09:23.174Z,7.69
2022-12-09T10:12:02.019Z,7.51
2022-12-09T10:14:42.807Z,7.36
2022-12-09T10:17:24.132Z,7.22
2022-12-09T10:19:56.157Z,7.14
2022-12-09T10:22:28.060Z,7.09
2022-12-09T10:24:58.405Z,7.05
2022-12-09T10:27:31.520Z,6.99
2022-12-09T10:30:03.676Z,6.93
2022-12-09T10:32:33.775Z,6.91
2022-12-09T10:35:13.294Z,6.87
2022-12-09T10:37:41.625Z,6.75
2022-12-09T10:40:21.974Z,6.83
2022-12-09T10:43:09.626Z,6.72
2022-12-09T10:46:16.948Z,6.77
2022-12-09T10:48:38.670Z,6.76
2022-12-09T10:51:14.047Z,6.67
2022-12-09T10:53:48.700Z,6.75
2022-12-09T10:56:21.933Z,6.72
2022-12-09T10:58:50.195Z,6.69
2022-12-09T11:01:19.539Z,6.69
2022-12-09T11:03:53.645Z,6.68
2022-12-09T11:06:27.282Z,6.67
2022-12-09T11:08:58.225Z,6.67
2022-12-09T11:11:45.366Z,6.65
2022-12-09T11:14:23.225Z,6.64
2022-12-09T11:16:54.660Z,6.64
2022-12-09T11:19:34.177Z,6.63
2022-12-09T11:22:36.454Z,6.62
2022-12-09T11:25:20.096Z,6.61
2022-12-09T11:27:52.273Z,6.61
2022-12-09T11:30:22.631Z,6.60
2022-12-09T11:33:01.204Z,6.59
2022-12-09T11:35:37.409Z,6.59
2022-12-09T11:38:17.025Z,6.62
2022-12-09T11:40:45.369Z,6.74
2022-12-09T11:43:13.310Z,6.87
2022-12-09T11:45:41.605Z,7.08
2022-12-09T11:48:35.099Z,7.29
2022-12-09T11:51:06.947Z,7.49
2022-12-09T11:53:40.694Z,7.70
2022-12-09T11:56:17.039Z,7.85
2022-12-09T11:58:51.227Z,8.03
2022-12-09T12:01:24.585Z,8.12
2022-12-09T12:03:56.787Z,8.25
2022-12-09T12:06:26.838Z,8.34
2022-12-09T12:08:59.018Z,8.42
2022-12-09T12:11:35.602Z,8.45
2022-12-09T12:14:11.519Z,8.48
2022-12-09T12:16:48.973Z,8.53
2022-12-09T12:19:23.323Z,8.54
2022-12-09T12:22:09.485Z,8.57
2022-12-09T12:24:55.676Z,8.54
2022-12-09T12:27:39.038Z,8.56
2022-12-09T12:30:11.041Z,8.58
2022-12-09T12:33:11.874Z,8.52
2022-12-09T12:35:56.832Z,8.36
2022-12-09T12:38:40.819Z,8.14
2022-12-09T12:41:15.018Z,7.93
2022-12-09T12:44:26.952Z,7.76
2022-12-09T12:47:03.198Z,7.62
2022-12-09T12:49:43.729Z,7.57
2022-12-09T12:55:27.162Z,7.43
2022-12-09T12:58:06.041Z,7.34
2022-12-09T13:00:43.188Z,7.39
2022-12-09T13:03:22.958Z,7.53
2022-12-09T13:05:53.562Z,7.66
2022-12-09T13:08:27.319Z,7.72
2022-12-09T13:10:58.159Z,7.90
2022-12-09T13:13:30.320Z,8.12
2022-12-09T13:16:03.674Z,8.33
2022-12-09T13:18:35.932Z,8.44
2022-12-09T13:21:05.848Z,8.44
2022-12-09T13:23:50.532Z,8.39
2022-12-09T13:26:27.978Z,8.26
2022-12-09T13:29:02.687Z,8.22
2022-12-09T13:31:32.944Z,8.05
2022-12-09T13:34:16.566Z,7.94
2022-12-09T13:36:46.578Z,7.82
2022-12-09T13:39:53.914Z,7.72
2022-12-09T13:42:54.186Z,7.63
2022-12-09T13:45:27.869Z,7.57
2022-12-09T13:47:56.454Z,7.51
2022-12-09T13:50:27.328Z,7.49
2022-12-09T13:52:57.787Z,7.44
2022-12-09T13:55:38.176Z,7.41
2022-12-09T13:58:55.098Z,7.42
2022-12-09T14:01:27.465Z,7.37
2022-12-09T14:04:08.092Z,7.42
2022-12-09T14:06:41.475Z,7.42
2022-12-09T14:09:24.936Z,7.39
2022-12-09T14:11:54.899Z,7.36
2022-12-09T14:14:48.773Z,7.33
2022-12-09T14:17:34.181Z,7.29
2022-12-09T14:20:05.542Z,7.27
2022-12-09T14:22:35.053Z,7.27
2022-12-09T14:25:36.127Z,7.13
2022-12-09T14:28:37.679Z,7.20
2022-12-09T14:31:08.942Z,7.09
2022-12-09T14:33:39.101Z,7.11
2022-12-09T14:36:21.187Z,7.37
2022-12-09T14:39:25.368Z,7.51
2022-12-09T14:41:50.826Z,7.75
2022-12-09T14:44:30.189Z,7.93
2022-12-09T14:47:15.221Z,8.02
2022-12-09T14:49:49.222Z,8.19
2022-12-09T14:52:23.955Z,8.15
2022-12-09T14:54:54.827Z,8.08
2022-12-09T14:57:25.743Z,7.94
2022-12-09T14:59:56.801Z,7.79
2022-12-09T15:02:26.725Z,7.68
2022-12-09T15:04:57.081Z,7.59
2022-12-09T15:07:26.715Z,7.51
2022-12-09T15:09:57.395Z,7.46
2022-12-09T15:12:30.439Z,7.41
2022-12-09T15:15:04.536Z,7.33
2022-12-09T15:17:37.716Z,7.33
2022-12-09T15:20:06.783Z,7.29
2022-12-09T15:22:35.703Z,7.26
2022-12-09T15:25:04.464Z,7.22
2022-12-09T15:27:32.479Z,7.18
2022-12-09T15:30:01.696Z,7.14
2022-12-09T15:32:31.590Z,7.11
2022-12-09T15:35:16.443Z,7.08
2022-12-09T15:37:45.060Z,7.12
2022-12-09T15:40:16.928Z,7.26
2022-12-09T15:42:47.647Z,7.42
2022-12-09T15:45:19.867Z,7.57
2022-12-09T15:47:53.277Z,7.71
2022-12-09T15:50:24.257Z,7.89
2022-12-09T15:52:54.188Z,7.99
2022-12-09T15:55:26.714Z,8.14
2022-12-09T15:57:57.137Z,8.16
2022-12-09T16:00:26.413Z,8.25
2022-12-09T16:02:54.688Z,8.13
2022-12-09T16:05:25.300Z,7.89
2022-12-09T16:07:55.598Z,7.82
2022-12-09T16:10:26.733Z,7.70
2022-12-09T16:13:09.774Z,7.60
2022-12-09T16:15:45.001Z,7.54
2022-12-09T16:18:18.397Z,7.47
2022-12-09T16:20:58.980Z,7.40
2022-12-09T16:23:27.977Z,7.33
2022-12-09T16:26:06.411Z,7.41
2022-12-09T16:28:35.273Z,7.36
2022-12-09T16:31:18.262Z,7.27
2022-12-09T16:33:49.580Z,7.26
2022-12-09T16:36:20.243Z,7.21
2022-12-09T16:39:13.769Z,7.09
2022-12-09T16:41:58.598Z,7.11
2022-12-09T16:44:30.797Z,7.09
2022-12-09T16:47:12.565Z,7.03
2022-12-09T16:49:42.494Z,7.04
2022-12-09T16:52:13.743Z,7.02
2022-12-09T16:54:41.989Z,7.02
2022-12-09T16:57:13.275Z,7.01
2022-12-09T16:59:41.351Z,6.99
2022-12-09T17:02:16.755Z,6.98
2022-12-09T17:04:44.578Z,7.00
2022-12-09T17:07:12.335Z,7.13
2022-12-09T17:09:40.061Z,7.33
2022-12-09T17:12:08.234Z,7.48
2022-12-09T17:14:36.004Z,7.58
2022-12-09T17:17:03.854Z,7.57
2022-12-09T17:19:33.127Z,7.59
2022-12-09T17:22:00.887Z,7.56
2022-12-09T17:24:28.580Z,7.50
2022-12-09T17:26:56.242Z,7.47
2022-12-09T17:29:23.949Z,7.40
2022-12-09T17:31:52.303Z,7.36
2022-12-09T17:34:20.774Z,7.31
2022-12-09T17:36:49.870Z,7.27
2022-12-09T17:39:17.844Z,7.24
2022-12-09T17:41:45.514Z,7.19
2022-12-09T17:44:13.201Z,7.15
2022-12-09T17:46:40.873Z,7.12
2022-12-09T17:49:08.592Z,7.08
2022-12-09T17:51:36.740Z,7.06
2022-12-09T17:54:06.575Z,7.05
2022-12-09T17:56:34.840Z,7.00
2022-12-09T17:59:04.469Z,7.03
2022-12-09T18:01:34.064Z,7.17
2022-12-09T18:04:07.912Z,7.31
2022-12-09T18:06:37.666Z,7.46
2022-12-09T18:09:10.825Z,7.64
2022-12-09T18:11:38.832Z,7.78
2022-12-09T18:14:07.260Z,7.93
2022-12-09T18:16:34.996Z,8.08
2022-12-09T18:19:04.332Z,8.19
2022-12-09T18:21:32.325Z,8.29
2022-12-09T18:24:00.196Z,8.27
2022-12-09T18:26:32.943Z,8.15
2022-12-09T18:29:01.782Z,8.00
2022-12-09T18:31:29.713Z,7.82
2022-12-09T18:33:57.650Z,7.67
2022-12-09T18:36:27.571Z,7.55
2022-12-09T18:38:55.259Z,7.47
2022-12-09T18:41:25.121Z,7.43
2022-12-09T18:43:55.654Z,7.39
2022-12-09T18:46:26.917Z,7.34
2022-12-09T18:48:58.794Z,7.29
2022-12-09T18:51:27.452Z,7.18
2022-12-09T18:53:55.524Z,7.21
2022-12-09T18:56:23.227Z,7.20
2022-12-09T18:59:05.830Z,7.15
2022-12-09T19:01:39.229Z,7.13
2022-12-09T19:04:08.707Z,7.11
2022-12-09T19:06:38.303Z,7.06
2022-12-09T19:09:07.674Z,7.03
2022-12-09T19:11:37.501Z,7.04
2022-12-09T19:14:06.049Z,7.08
2022-12-09T19:16:35.954Z,7.10
2022-12-09T19:19:09.461Z,7.13
2022-12-09T19:21:38.136Z,6.99
2022-12-09T19:24:06.811Z,7.07
2022-12-09T19:26:36.357Z,7.07
2022-12-09T19:29:10.536Z,7.04
2022-12-09T19:31:41.932Z,7.02
2022-12-09T19:34:13.148Z,6.98
2022-12-09T19:36:41.181Z,6.94
2022-12-09T19:39:10.404Z,6.95
2022-12-09T19:41:40.372Z,6.93
2022-12-09T19:44:08.700Z,6.92
2022-12-09T19:46:38.336Z,6.90
2022-12-09T19:49:07.946Z,6.88
2022-12-09T19:51:35.658Z,6.85
2022-12-09T19:54:03.426Z,6.85
2022-12-09T19:56:31.443Z,6.81
2022-12-09T19:59:00.604Z,6.83
2022-12-09T20:01:30.321Z,6.79
2022-12-09T20:04:08.874Z,6.78
2022-12-09T20:06:43.837Z,6.76
2022-12-09T20:09:13.881Z,6.78
2022-12-09T20:11:42.738Z,6.77
2022-12-09T20:14:13.146Z,6.76
2022-12-09T20:16:41.273Z,6.76
2022-12-09T20:19:09.500Z,6.72
2022-12-09T20:21:37.686Z,6.75
2022-12-09T20:24:07.813Z,6.72
2022-12-09T20:26:38.060Z,6.72
2022-12-09T20:29:08.408Z,6.72
2022-12-09T20:31:37.585Z,6.70
2022-12-09T20:34:07.910Z,6.71
2022-12-09T20:36:37.875Z,6.69
2022-12-09T20:39:11.242Z,6.69
2022-12-09T20:41:39.232Z,6.66
2022-12-09T20:44:07.054Z,6.66
2022-12-09T20:46:35.560Z,6.64
2022-12-09T20:49:03.538Z,6.63
2022-12-09T20:51:33.866Z,6.61
2022-12-09T20:54:02.169Z,6.58
2022-12-09T20:56:31.314Z,6.60
2022-12-09T20:58:59.356Z,6.59
2022-12-09T21:01:28.987Z,6.56
2022-12-09T21:03:58.296Z,6.53
2022-12-09T21:06:29.368Z,6.55
2022-12-09T21:08:57.472Z,6.51
2022-12-09T21:11:26.434Z,6.51
2022-12-09T21:13:58.670Z,6.50
2022-12-09T21:16:28.909Z,6.48
2022-12-09T21:18:58.148Z,6.46
2022-12-09T21:21:27.556Z,6.48
2022-12-09T21:23:55.309Z,6.48
2022-12-09T21:26:24.630Z,6.45
2022-12-09T21:28:53.074Z,6.44
2022-12-09T21:31:24.583Z,6.43
2022-12-09T21:33:54.330Z,6.43
2022-12-09T21:36:24.854Z,6.40
2022-12-09T21:38:53.624Z,6.39
2022-12-09T21:41:23.530Z,6.37
2022-12-09T21:43:52.213Z,6.39
2022-12-09T21:46:23.353Z,6.38
2022-12-09T21:48:54.242Z,6.37
2022-12-09T21:51:24.373Z,6.34
2022-12-09T21:53:52.163Z,6.33
2022-12-09T21:56:22.612Z,6.33
2022-12-09T21:58:52.550Z,6.31
2022-12-09T22:01:23.890Z,6.30
2022-12-09T22:03:51.586Z,6.30
2022-12-09T22:06:19.400Z,6.27
2022-12-09T22:08:47.265Z,6.27
2022-12-09T22:11:17.669Z,6.27
2022-12-09T22:13:45.890Z,6.24
2022-12-09T22:16:16.325Z,6.23
2022-12-09T22:18:45.560Z,6.21
2022-12-09T22:21:24.646Z,6.19
2022-12-09T22:23:54.248Z,6.19
2022-12-09T22:26:22.725Z,6.18
2022-12-09T22:28:50.784Z,6.18
2022-12-09T22:31:21.341Z,6.17
2022-12-09T22:33:51.659Z,6.09
2022-12-09T22:36:20.294Z,6.15
2022-12-09T22:38:48.775Z,6.16
2022-12-09T22:41:18.815Z,6.07
2022-12-09T22:43:48.132Z,6.13
2022-12-09T22:46:17.529Z,6.11
2022-12-09T22:48:45.611Z,6.12
2022-12-09T22:51:16.305Z,6.11
2022-12-09T22:53:44.972Z,6.09
2022-12-09T22:56:13.526Z,6.08
2022-12-09T22:58:41.533Z,6.07
2022-12-09T23:01:14.245Z,6.05
2022-12-09T23:03:42.429Z,6.05
2022-12-09T23:06:10.561Z,5.98
2022-12-09T23:08:41.845Z,6.01
2022-12-09T23:11:16.403Z,6.03
2022-12-09T23:13:44.517Z,6.01
2022-12-09T23:16:15.369Z,6.00
2022-12-09T23:18:43.634Z,6.00
2022-12-09T23:21:16.431Z,5.98
2022-12-09T23:23:45.594Z,5.98
2022-12-09T23:26:16.500Z,5.98
2022-12-09T23:28:45.929Z,5.91
2022-12-09T23:31:15.702Z,5.95
2022-12-09T23:33:45.400Z,5.94
2022-12-09T23:36:14.815Z,5.93
2022-12-09T23:38:43.316Z,5.77
2022-12-09T23:41:13.603Z,5.61
2022-12-09T23:43:42.003Z,5.72
2022-12-09T23:46:15.748Z,5.69
2022-12-09T23:48:44.135Z,5.67
2022-12-09T23:51:13.112Z,5.68
2022-12-09T23:53:41.625Z,5.68
2022-12-09T23:56:13.483Z,5.68
2022-12-09T23:58:42.068Z,5.68
